Home   Weather   Italy   Palermo   Past weeks
Flag for Italy

Past Weather in Palermo, Italy — Yesterday and Last 2 Weeks

Currently: 57 °F. Passing clouds. (Weather station: Palermo / Punta Raisi, Italy). See more current weather

Past Weather in Palermo — Graph

°F

Palermo Temperature Yesterday

Maximum temperature yesterday: 55 °F (at 2:20 pm)
Minimum temperature yesterday: 45 °F (at 6:20 am)
Average temperature yesterday: 49 °F

High & Low Weather Summary for the Past Weeks

 TemperatureHumidityPressure
High66 °F (Jan 18, 1:50 pm)93% (Jan 27, 4:20 am)30.21 "Hg (Jan 27, 4:20 am)
Low43 °F (Jan 24, 5:20 am)48% (Jan 24, 11:50 am)29.50 "Hg (Jan 20, 2:50 pm)
Average53 °F70%29.85 "Hg
* Reported Jan 14 12:20 pm — Jan 29 12:50 pm, Palermo. Weather by CustomWeather, © 2023

Note: Actual official high and low records may vary slightly from our data, if they occured in-between our weather recording intervals... More about our weather records

Palermo Weather History for the Previous 24 Hours

Scroll right to see more
 ConditionsComfort  
Time TempWeatherWind HumidityBarometerVisibility
12:50 pm
Sun, Jan 29
57 °FSunny.3 mph59%30.04 "Hg10 mi
11:50 am57 °FSunny.3 mph59%30.07 "Hg10 mi
11:20 am55 °FSunny.9 mph63%30.07 "Hg10 mi
10:50 am54 °FPassing clouds.5 mph72%30.07 "HgN/A
10:20 am54 °FPassing clouds.5 mph72%30.07 "HgN/A
9:50 am52 °FPassing clouds.5 mph77%30.07 "HgN/A
9:20 am50 °FPassing clouds.3 mph82%30.07 "HgN/A
8:50 am46 °FPassing clouds.3 mph82%30.04 "HgN/A
8:20 am43 °FSunny.5 mph81%30.04 "Hg10 mi
7:50 am45 °FPassing clouds.3 mph71%30.01 "HgN/A
6:50 am46 °FClear.3 mph76%30.01 "Hg10 mi
6:20 am45 °FClear.3 mph71%29.98 "Hg10 mi
5:50 am45 °FClear.3 mph76%29.98 "Hg10 mi
5:20 am46 °FClear.5 mph76%29.98 "Hg10 mi
4:50 am43 °FClear.5 mph76%29.98 "Hg10 mi
4:20 am45 °FClear.5 mph76%29.98 "Hg10 mi
3:50 am45 °FClear.5 mph76%29.98 "Hg10 mi
3:20 am45 °FClear.5 mph76%29.98 "Hg10 mi
2:50 am45 °FClear.6 mph81%29.98 "Hg10 mi
2:20 am46 °FClear.7 mph76%29.98 "Hg10 mi
1:50 am46 °FClear.6 mph76%29.98 "Hg10 mi
12:20 am45 °FClear.8 mph81%29.98 "Hg10 mi
11:50 pm
Sat, Jan 28
45 °FClear.6 mph87%29.98 "Hg10 mi
11:20 pm46 °FClear.7 mph76%29.98 "Hg10 mi
10:50 pm46 °FClear.7 mph82%29.98 "Hg10 mi
10:20 pm48 °FClear.7 mph76%29.95 "Hg10 mi
9:50 pm46 °FClear.8 mph76%29.95 "Hg10 mi
9:20 pm46 °FClear.8 mph76%29.95 "Hg10 mi
8:50 pm46 °FClear.8 mph82%29.95 "Hg10 mi
8:20 pm48 °FClear.8 mph76%29.95 "Hg10 mi
7:50 pm48 °FPassing clouds.7 mph76%29.95 "HgN/A
7:20 pm48 °FPassing clouds.8 mph76%29.92 "HgN/A
6:50 pm48 °FPassing clouds.6 mph76%29.92 "HgN/A
6:20 pm50 °FPassing clouds.6 mph71%29.92 "HgN/A
5:50 pm54 °FPassing clouds.5 mph63%29.89 "HgN/A
5:20 pm54 °FPassing clouds.5 mph63%29.89 "HgN/A
4:50 pm54 °FPassing clouds.5 mph63%29.89 "HgN/A
4:20 pm54 °FPassing clouds.6 mph67%29.89 "HgN/A
3:20 pm55 °FPassing clouds.5 mph63%29.86 "HgN/A
2:50 pm54 °FPassing clouds.7 mph67%29.86 "HgN/A
2:20 pm55 °FPassing clouds.3 mph67%29.86 "HgN/A
1:50 pm54 °FPassing clouds.5 mph67%29.86 "HgN/A
1:20 pm54 °FPassing clouds.5 mph67%29.86 "HgN/A
Weather by CustomWeather, © 2023

See weather overview